createdAt,value
2023-03-17T08:03:27.484Z,7.80
2023-03-17T08:05:58.252Z,7.78
2023-03-17T08:08:29.118Z,7.74
2023-03-17T08:11:05.156Z,8.02
2023-03-17T08:13:35.591Z,7.90
2023-03-17T08:16:05.879Z,8.08
2023-03-17T08:18:38.719Z,7.92
2023-03-17T08:21:09.246Z,7.94
2023-03-17T08:23:39.352Z,8.15
2023-03-17T08:26:09.437Z,8.16
2023-03-17T08:28:39.949Z,8.34
2023-03-17T08:31:13.105Z,8.23
2023-03-17T08:33:48.735Z,8.62
2023-03-17T08:36:19.247Z,8.49
2023-03-17T08:38:50.553Z,8.39
2023-03-17T08:41:28.302Z,8.48
2023-03-17T08:43:58.825Z,8.50
2023-03-17T08:46:30.830Z,8.53
2023-03-17T08:49:04.437Z,8.64
2023-03-17T08:51:37.570Z,8.54
2023-03-17T08:54:08.497Z,8.64
2023-03-17T08:56:38.690Z,8.52
2023-03-17T08:59:08.995Z,8.37
2023-03-17T09:01:40.511Z,8.31
2023-03-17T09:04:13.302Z,8.48
2023-03-17T09:07:01.322Z,8.64
2023-03-17T09:09:34.724Z,8.82
2023-03-17T09:12:06.559Z,8.77
2023-03-17T09:14:43.467Z,8.60
2023-03-17T09:17:15.627Z,8.83
2023-03-17T09:19:48.376Z,8.87
2023-03-17T09:22:20.619Z,9.00
2023-03-17T09:24:50.882Z,8.73
2023-03-17T09:27:21.100Z,8.73
2023-03-17T09:29:51.403Z,9.13
2023-03-17T09:32:21.610Z,9.00
2023-03-17T09:34:54.230Z,9.25
2023-03-17T09:37:24.386Z,9.24
2023-03-17T09:39:54.621Z,9.47
2023-03-17T09:42:39.368Z,9.48
2023-03-17T09:45:25.029Z,9.47
2023-03-17T09:48:24.531Z,9.72
2023-03-17T09:51:00.582Z,9.23
2023-03-17T09:53:35.269Z,9.08
2023-03-17T09:56:11.448Z,9.01
2023-03-17T09:58:43.668Z,9.19
2023-03-17T10:01:14.044Z,9.30
2023-03-17T10:03:45.299Z,9.37
2023-03-17T10:06:37.858Z,9.26
2023-03-17T10:09:26.728Z,9.39
2023-03-17T10:12:05.639Z,9.48
2023-03-17T10:14:51.132Z,9.49
2023-03-17T10:17:23.378Z,9.50
2023-03-17T10:20:01.156Z,9.67
2023-03-17T10:22:41.316Z,9.60
2023-03-17T10:25:17.812Z,9.65
2023-03-17T10:27:54.116Z,9.73
2023-03-17T10:30:26.142Z,9.89
2023-03-17T10:32:59.593Z,9.67
2023-03-17T10:35:30.130Z,9.86
2023-03-17T10:38:14.079Z,9.86
2023-03-17T10:40:47.492Z,9.73
2023-03-17T10:43:21.983Z,9.71
2023-03-17T10:46:02.665Z,9.79
2023-03-17T10:48:34.590Z,9.87
2023-03-17T10:51:10.458Z,10.12
2023-03-17T10:53:46.081Z,9.88
2023-03-17T10:56:26.090Z,10.33
2023-03-17T10:58:59.128Z,10.38
2023-03-17T11:01:33.249Z,10.29
2023-03-17T11:04:04.116Z,10.15
2023-03-17T11:06:42.171Z,9.95
2023-03-17T11:09:21.790Z,10.02
2023-03-17T11:11:53.303Z,10.64
2023-03-17T11:14:23.802Z,10.68
2023-03-17T11:16:58.125Z,10.12
2023-03-17T11:19:39.635Z,10.24
2023-03-17T11:22:16.223Z,10.35
2023-03-17T11:25:02.796Z,10.73
2023-03-17T11:27:35.959Z,10.96
2023-03-17T11:30:25.646Z,11.28
2023-03-17T11:33:00.957Z,11.46
2023-03-17T11:35:38.577Z,11.11
2023-03-17T11:38:22.108Z,10.95
2023-03-17T11:41:31.629Z,10.76
2023-03-17T11:44:23.820Z,10.92
2023-03-17T11:46:59.183Z,11.18
2023-03-17T11:49:36.037Z,11.40
2023-03-17T11:52:14.927Z,11.79
2023-03-17T11:54:53.488Z,11.36
2023-03-17T11:57:33.104Z,11.23
2023-03-17T12:00:08.161Z,11.68
2023-03-17T12:02:45.852Z,11.50
2023-03-17T12:05:19.402Z,12.00
2023-03-17T12:07:55.171Z,11.32
2023-03-17T12:10:28.924Z,11.43
2023-03-17T12:13:05.413Z,11.60
2023-03-17T12:15:40.974Z,11.50
2023-03-17T12:18:18.531Z,11.71
2023-03-17T12:20:54.587Z,11.80
2023-03-17T12:23:32.301Z,11.62
2023-03-17T12:26:07.692Z,11.95
2023-03-17T12:28:47.280Z,11.97
2023-03-17T12:31:23.020Z,11.85
2023-03-17T12:34:02.496Z,11.82
2023-03-17T12:36:41.718Z,11.82
2023-03-17T12:39:15.216Z,11.78
2023-03-17T12:42:14.757Z,11.47
2023-03-17T12:45:03.830Z,11.67
2023-03-17T12:47:50.954Z,11.78
2023-03-17T12:50:50.999Z,11.38
2023-03-17T12:53:40.742Z,11.40
2023-03-17T12:56:17.257Z,11.80
2023-03-17T12:58:49.535Z,11.70
2023-03-17T13:01:30.149Z,11.34
2023-03-17T13:04:05.801Z,11.35
2023-03-17T13:06:42.843Z,11.43
2023-03-17T13:09:45.496Z,11.50
2023-03-17T13:12:45.527Z,12.00
2023-03-17T13:15:26.993Z,11.86
2023-03-17T13:18:27.412Z,12.10
2023-03-17T13:21:15.079Z,12.10
2023-03-17T13:23:47.747Z,12.32
2023-03-17T13:26:21.131Z,12.66
2023-03-17T13:28:53.003Z,12.77
2023-03-17T13:31:36.941Z,13.49
2023-03-17T13:34:16.690Z,13.25
2023-03-17T13:36:58.266Z,12.28
2023-03-17T13:40:02.223Z,12.09
2023-03-17T13:42:44.681Z,12.30
2023-03-17T13:45:28.123Z,13.08
2023-03-17T13:48:44.659Z,13.07
2023-03-17T13:51:23.417Z,12.40
2023-03-17T13:53:57.190Z,12.02
2023-03-17T13:56:30.660Z,12.17
2023-03-17T13:59:15.528Z,12.48
2023-03-17T14:01:50.938Z,13.24
2023-03-17T14:04:25.083Z,13.59
2023-03-17T14:07:02.264Z,13.56
2023-03-17T14:09:39.822Z,12.45
2023-03-17T14:12:16.550Z,12.09
2023-03-17T14:14:53.947Z,11.73
2023-03-17T14:17:28.159Z,11.43
2023-03-17T14:20:11.158Z,11.35
2023-03-17T14:22:48.515Z,11.25
2023-03-17T14:25:20.426Z,11.21
2023-03-17T14:27:54.010Z,11.31
2023-03-17T14:30:26.736Z,12.17
2023-03-17T14:33:03.961Z,12.99
2023-03-17T14:35:35.541Z,13.28
2023-03-17T14:38:20.828Z,13.38
2023-03-17T14:40:51.466Z,13.42
2023-03-17T14:43:21.510Z,13.15
2023-03-17T14:45:54.290Z,13.24
2023-03-17T14:48:30.197Z,13.54
2023-03-17T14:51:06.009Z,13.79
2023-03-17T14:53:43.410Z,13.21
2023-03-17T14:56:13.743Z,13.50
2023-03-17T14:58:46.361Z,13.48
2023-03-17T15:01:20.328Z,13.66
2023-03-17T15:03:59.292Z,13.06
2023-03-17T15:06:35.161Z,12.36
2023-03-17T15:09:21.346Z,11.70
2023-03-17T15:11:52.200Z,11.55
2023-03-17T15:14:34.670Z,11.52
2023-03-17T15:17:06.922Z,11.46
2023-03-17T15:19:42.393Z,11.64
2023-03-17T15:22:28.161Z,12.18
2023-03-17T15:25:21.266Z,12.07
2023-03-17T15:27:51.805Z,11.77
2023-03-17T15:30:22.532Z,11.49
2023-03-17T15:33:00.814Z,11.33
2023-03-17T15:35:31.605Z,11.37
2023-03-17T15:38:01.728Z,11.37
2023-03-17T15:40:34.648Z,11.31
2023-03-17T15:43:04.836Z,11.23
2023-03-17T15:45:34.906Z,11.17
2023-03-17T15:48:04.996Z,11.22
2023-03-17T15:50:35.678Z,11.15
2023-03-17T15:53:06.111Z,11.12
2023-03-17T15:55:38.821Z,11.42
2023-03-17T15:58:08.900Z,11.57
2023-03-17T16:00:39.355Z,11.77
2023-03-17T16:03:18.644Z,11.53
2023-03-17T16:05:48.749Z,11.50
2023-03-17T16:08:19.711Z,11.34
2023-03-17T16:10:52.441Z,11.36
2023-03-17T16:13:22.884Z,11.17
2023-03-17T16:15:58.296Z,11.15
2023-03-17T16:18:35.319Z,11.03
2023-03-17T16:21:06.337Z,10.99
2023-03-17T16:23:38.776Z,10.91
2023-03-17T16:26:16.197Z,11.00
2023-03-17T16:28:47.839Z,10.88
2023-03-17T16:31:30.324Z,10.76
2023-03-17T16:34:02.601Z,10.78
2023-03-17T16:36:32.714Z,10.80
2023-03-17T16:39:02.829Z,10.70
2023-03-17T16:41:38.242Z,10.65
2023-03-17T16:44:09.951Z,10.67
2023-03-17T16:46:40.270Z,10.79
2023-03-17T16:49:10.312Z,11.05
2023-03-17T16:51:40.353Z,11.15
2023-03-17T16:54:10.822Z,11.19
2023-03-17T16:56:45.107Z,11.15
2023-03-17T16:59:21.466Z,11.27
2023-03-17T17:01:52.585Z,11.08
2023-03-17T17:04:24.423Z,11.21
2023-03-17T17:06:55.174Z,11.43
2023-03-17T17:09:25.516Z,11.31
2023-03-17T17:11:58.684Z,11.43
2023-03-17T17:14:28.731Z,11.26
2023-03-17T17:16:58.840Z,11.20
2023-03-17T17:19:28.945Z,11.53
2023-03-17T17:21:59.074Z,11.23
2023-03-17T17:24:29.715Z,11.27
2023-03-17T17:27:02.511Z,11.30
2023-03-17T17:29:32.649Z,11.51
2023-03-17T17:32:02.763Z,11.93
2023-03-17T17:34:32.850Z,11.84
2023-03-17T17:37:02.918Z,11.47
2023-03-17T17:39:33.089Z,11.60
2023-03-17T17:42:05.878Z,11.59
2023-03-17T17:44:37.149Z,11.61
2023-03-17T17:47:07.999Z,11.16
2023-03-17T17:49:38.230Z,11.08
2023-03-17T17:52:08.547Z,11.22
2023-03-17T17:54:38.879Z,11.32
2023-03-17T17:57:11.574Z,11.30
2023-03-17T17:59:41.763Z,11.47
2023-03-17T18:02:13.333Z,11.43
2023-03-17T18:04:43.464Z,11.00
2023-03-17T18:07:13.716Z,11.14
2023-03-17T18:09:43.748Z,11.16
2023-03-17T18:12:16.581Z,11.48
2023-03-17T18:14:46.635Z,11.24
2023-03-17T18:17:21.817Z,11.31
2023-03-17T18:19:53.087Z,11.50
2023-03-17T18:22:23.615Z,11.43
2023-03-17T18:24:53.829Z,11.37
2023-03-17T18:27:26.654Z,11.80
2023-03-17T18:29:58.236Z,11.85
2023-03-17T18:32:29.036Z,11.87
2023-03-17T18:35:05.333Z,11.82
2023-03-17T18:37:35.856Z,12.04
2023-03-17T18:40:15.101Z,11.73
2023-03-17T18:42:50.388Z,12.32
2023-03-17T18:45:20.535Z,12.11
2023-03-17T18:47:50.620Z,12.14
2023-03-17T18:50:22.176Z,12.29
2023-03-17T18:52:53.005Z,12.02
2023-03-17T18:55:23.312Z,12.38
